GLO2004 SBGL-SBEG
Flight info
| Callsign | GLO2004 |
|---|---|
| Flight time | 3h 38m |
| Altitude | 36000 |
| Route | EDNAM UM409 ESMAR DCT IRUMO |
| Aircraft | B738/M-SDFGIKLORWXY/LB1 |
Departure
| Time | 2026-04-20 20:09 |
|---|---|
| Airport | Rio Galeão – Tom Jobim International Airport (SBGL) |
Arrival
| Time | 2026-04-20 23:48 |
|---|---|
| Airport | Eduardo Gomes International Airport (SBEG) |
| Time | Latitude | Longitude | Altitude | Speed | Heading |
|---|---|---|---|---|---|
| 2026-04-20 19:45 | -22.81397 | -43.24832 | 21 ft | 0 kts | 88° |
| 2026-04-20 20:01 | -22.81398 | -43.24854 | 23 ft | 4 kts | 95° |
| 2026-04-20 20:01 | -22.81392 | -43.24882 | 21 ft | 4 kts | 117° |
| 2026-04-20 20:01 | -22.81376 | -43.24901 | 22 ft | 4 kts | 169° |
| 2026-04-20 20:02 | -22.81365 | -43.24902 | 21 ft | 1 kts | 181° |
| 2026-04-20 20:04 | -22.81368 | -43.24902 | 21 ft | 2 kts | 181° |
| 2026-04-20 20:04 | -22.81393 | -43.24902 | 21 ft | 6 kts | 181° |
| 2026-04-20 20:04 | -22.81446 | -43.24910 | 21 ft | 10 kts | 199° |
| 2026-04-20 20:04 | -22.81473 | -43.24974 | 21 ft | 12 kts | 298° |
| 2026-04-20 20:05 | -22.81422 | -43.25065 | 21 ft | 16 kts | 301° |
| 2026-04-20 20:05 | -22.81343 | -43.25164 | 21 ft | 19 kts | 308° |
| 2026-04-20 20:05 | -22.81290 | -43.25244 | 21 ft | 21 kts | 305° |
| 2026-04-20 20:05 | -22.81176 | -43.25355 | 21 ft | 23 kts | 333° |
| 2026-04-20 20:06 | -22.81019 | -43.25383 | 21 ft | 20 kts | 5° |
| 2026-04-20 20:06 | -22.80934 | -43.25455 | 29 ft | 17 kts | 295° |
| 2026-04-20 20:06 | -22.80876 | -43.25571 | 28 ft | 19 kts | 321° |
| 2026-04-20 20:06 | -22.80745 | -43.25519 | 21 ft | 23 kts | 40° |
| 2026-04-20 20:07 | -22.80613 | -43.25442 | 27 ft | 20 kts | 346° |
| 2026-04-20 20:07 | -22.80510 | -43.25545 | 30 ft | 21 kts | 324° |
| 2026-04-20 20:07 | -22.80372 | -43.25612 | 27 ft | 22 kts | 15° |
| 2026-04-20 20:07 | -22.80290 | -43.25543 | 28 ft | 15 kts | 39° |
| 2026-04-20 20:08 | -22.80204 | -43.25476 | 24 ft | 13 kts | 37° |
| 2026-04-20 20:08 | -22.80156 | -43.25387 | 25 ft | 14 kts | 74° |
| 2026-04-20 20:08 | -22.80103 | -43.25180 | 25 ft | 61 kts | 74° |
| 2026-04-20 20:08 | -22.79923 | -43.24490 | 32 ft | 127 kts | 74° |
| 2026-04-20 20:09 | -22.79636 | -43.23362 | 50 ft | 180 kts | 76° |
| 2026-04-20 20:09 | -22.79261 | -43.21958 | 552 ft | 195 kts | 76° |
| 2026-04-20 20:09 | -22.78907 | -43.20575 | 1495 ft | 190 kts | 79° |
| 2026-04-20 20:09 | -22.78603 | -43.19145 | 2152 ft | 204 kts | 79° |
| 2026-04-20 20:10 | -22.78276 | -43.17536 | 2419 ft | 231 kts | 80° |
| 2026-04-20 20:10 | -22.77914 | -43.15748 | 2659 ft | 254 kts | 80° |
| 2026-04-20 20:10 | -22.77519 | -43.13835 | 3034 ft | 271 kts | 78° |
| 2026-04-20 20:10 | -22.77094 | -43.11803 | 3742 ft | 277 kts | 78° |
| 2026-04-20 20:11 | -22.76667 | -43.09778 | 4671 ft | 276 kts | 77° |
| 2026-04-20 20:11 | -22.76231 | -43.07725 | 5437 ft | 282 kts | 76° |
| 2026-04-20 20:11 | -22.75317 | -43.05853 | 6182 ft | 284 kts | 43° |
| 2026-04-20 20:11 | -22.73628 | -43.04767 | 6893 ft | 287 kts | 13° |
| 2026-04-20 20:12 | -22.71649 | -43.04621 | 7594 ft | 287 kts | 349° |
| 2026-04-20 20:12 | -22.69721 | -43.05190 | 8312 ft | 289 kts | 338° |
| 2026-04-20 20:12 | -22.67834 | -43.05972 | 9029 ft | 293 kts | 335° |
| 2026-04-20 20:13 | -22.63995 | -43.07660 | 10387 ft | 305 kts | 335° |
| 2026-04-20 20:13 | -22.61949 | -43.08557 | 10573 ft | 329 kts | 335° |
| 2026-04-20 20:13 | -22.59758 | -43.09508 | 10806 ft | 349 kts | 336° |
| 2026-04-20 20:13 | -22.57462 | -43.10493 | 11301 ft | 357 kts | 336° |
| 2026-04-20 20:14 | -22.55136 | -43.11481 | 11963 ft | 360 kts | 336° |
| 2026-04-20 20:14 | -22.52789 | -43.12471 | 12632 ft | 363 kts | 336° |
| 2026-04-20 20:14 | -22.50425 | -43.13469 | 13246 ft | 367 kts | 336° |
| 2026-04-20 20:14 | -22.48029 | -43.14479 | 13844 ft | 372 kts | 336° |
| 2026-04-20 20:15 | -22.45609 | -43.15498 | 14406 ft | 375 kts | 336° |
| 2026-04-20 20:15 | -22.43165 | -43.16526 | 14976 ft | 379 kts | 336° |
| 2026-04-20 20:15 | -22.40696 | -43.17564 | 15509 ft | 383 kts | 337° |
| 2026-04-20 20:15 | -22.38198 | -43.18614 | 16038 ft | 388 kts | 337° |
| 2026-04-20 20:16 | -22.35665 | -43.19679 | 16555 ft | 392 kts | 337° |
| 2026-04-20 20:16 | -22.33143 | -43.20738 | 17084 ft | 396 kts | 337° |
| 2026-04-20 20:16 | -22.30570 | -43.21818 | 17635 ft | 399 kts | 337° |
| 2026-04-20 20:16 | -22.27962 | -43.22912 | 18131 ft | 402 kts | 337° |
| 2026-04-20 20:17 | -22.25346 | -43.24010 | 18562 ft | 406 kts | 337° |
| 2026-04-20 20:17 | -22.22696 | -43.25121 | 18986 ft | 410 kts | 337° |
| 2026-04-20 20:17 | -22.20029 | -43.26239 | 19434 ft | 413 kts | 337° |
| 2026-04-20 20:17 | -22.17338 | -43.27367 | 19857 ft | 416 kts | 337° |
| 2026-04-20 20:18 | -22.14625 | -43.28504 | 20266 ft | 420 kts | 337° |
| 2026-04-20 20:18 | -22.11887 | -43.29650 | 20696 ft | 424 kts | 337° |
| 2026-04-20 20:18 | -22.09123 | -43.30806 | 21093 ft | 427 kts | 337° |
| 2026-04-20 20:18 | -22.06338 | -43.31971 | 21498 ft | 431 kts | 337° |
| 2026-04-20 20:19 | -22.03531 | -43.33145 | 21926 ft | 434 kts | 337° |
| 2026-04-20 20:19 | -22.00707 | -43.34325 | 22330 ft | 438 kts | 337° |
| 2026-04-20 20:19 | -21.97889 | -43.35503 | 22706 ft | 441 kts | 337° |
| 2026-04-20 20:19 | -21.95020 | -43.36701 | 23094 ft | 444 kts | 337° |
| 2026-04-20 20:20 | -21.92123 | -43.37910 | 23479 ft | 447 kts | 337° |
| 2026-04-20 20:20 | -21.89216 | -43.39123 | 23811 ft | 450 kts | 337° |
| 2026-04-20 20:20 | -21.86290 | -43.40344 | 24141 ft | 452 kts | 337° |
| 2026-04-20 20:20 | -21.83349 | -43.41570 | 24475 ft | 454 kts | 337° |
| 2026-04-20 20:21 | -21.80450 | -43.42927 | 24807 ft | 454 kts | 330° |
| 2026-04-20 20:21 | -21.77702 | -43.44601 | 25138 ft | 455 kts | 328° |
| 2026-04-20 20:21 | -21.74968 | -43.46342 | 25470 ft | 457 kts | 327° |
| 2026-04-20 20:21 | -21.72234 | -43.48094 | 25799 ft | 459 kts | 327° |
| 2026-04-20 20:22 | -21.69475 | -43.49846 | 26122 ft | 461 kts | 328° |
| 2026-04-20 20:22 | -21.66699 | -43.51590 | 26440 ft | 463 kts | 328° |
| 2026-04-20 20:22 | -21.63902 | -43.53333 | 26751 ft | 465 kts | 328° |
| 2026-04-20 20:22 | -21.61097 | -43.55077 | 27055 ft | 467 kts | 328° |
| 2026-04-20 20:23 | -21.58274 | -43.56831 | 27349 ft | 469 kts | 328° |
| 2026-04-20 20:23 | -21.55442 | -43.58590 | 27650 ft | 471 kts | 328° |
| 2026-04-20 20:23 | -21.52593 | -43.60358 | 27948 ft | 473 kts | 328° |
| 2026-04-20 20:23 | -21.49739 | -43.62129 | 28249 ft | 475 kts | 328° |
| 2026-04-20 20:24 | -21.46866 | -43.63911 | 28539 ft | 477 kts | 328° |
| 2026-04-20 20:24 | -21.43985 | -43.65697 | 28818 ft | 479 kts | 328° |
| 2026-04-20 20:24 | -21.41091 | -43.67490 | 29100 ft | 481 kts | 328° |
| 2026-04-20 20:24 | -21.38186 | -43.69290 | 29375 ft | 483 kts | 328° |
| 2026-04-20 20:25 | -21.35307 | -43.71073 | 29627 ft | 485 kts | 328° |
| 2026-04-20 20:25 | -21.32374 | -43.72889 | 29873 ft | 487 kts | 328° |
| 2026-04-20 20:25 | -21.29430 | -43.74711 | 30129 ft | 489 kts | 328° |
| 2026-04-20 20:25 | -21.26476 | -43.76537 | 30354 ft | 490 kts | 328° |
| 2026-04-20 20:26 | -21.23537 | -43.78405 | 30551 ft | 492 kts | 327° |
| 2026-04-20 20:26 | -21.20604 | -43.80320 | 30795 ft | 492 kts | 327° |
| 2026-04-20 20:26 | -21.17699 | -43.82237 | 31089 ft | 491 kts | 326° |
| 2026-04-20 20:26 | -21.14790 | -43.84159 | 31395 ft | 489 kts | 326° |
| 2026-04-20 20:27 | -21.11892 | -43.86066 | 31674 ft | 488 kts | 326° |
| 2026-04-20 20:27 | -21.09032 | -43.87942 | 31927 ft | 488 kts | 326° |
| 2026-04-20 20:27 | -21.06134 | -43.89836 | 32198 ft | 487 kts | 326° |
| 2026-04-20 20:27 | -21.03240 | -43.91724 | 32480 ft | 486 kts | 326° |
| 2026-04-20 20:28 | -21.00358 | -43.93601 | 32752 ft | 485 kts | 326° |
| 2026-04-20 20:28 | -20.97472 | -43.95481 | 33050 ft | 484 kts | 325° |
| 2026-04-20 20:28 | -20.94596 | -43.97354 | 33332 ft | 483 kts | 325° |
| 2026-04-20 20:28 | -20.91723 | -43.99224 | 33611 ft | 482 kts | 325° |
| 2026-04-20 20:29 | -20.88860 | -44.01087 | 33890 ft | 481 kts | 325° |
| 2026-04-20 20:29 | -20.86005 | -44.02944 | 34153 ft | 480 kts | 324° |
| 2026-04-20 20:29 | -20.83147 | -44.04804 | 34354 ft | 481 kts | 324° |
| 2026-04-20 20:29 | -20.80323 | -44.06640 | 34518 ft | 482 kts | 324° |
| 2026-04-20 20:30 | -20.77420 | -44.08526 | 34700 ft | 482 kts | 324° |
| 2026-04-20 20:30 | -20.74550 | -44.10381 | 34899 ft | 482 kts | 325° |
| 2026-04-20 20:30 | -20.71712 | -44.12205 | 35090 ft | 482 kts | 325° |
| 2026-04-20 20:30 | -20.68812 | -44.14088 | 35290 ft | 482 kts | 324° |
| 2026-04-20 20:31 | -20.65984 | -44.15936 | 35469 ft | 482 kts | 324° |
| 2026-04-20 20:31 | -20.63118 | -44.17805 | 35647 ft | 482 kts | 325° |
| 2026-04-20 20:31 | -20.60248 | -44.19656 | 35817 ft | 483 kts | 325° |
| 2026-04-20 20:31 | -20.57366 | -44.21497 | 35986 ft | 483 kts | 325° |
| 2026-04-20 20:32 | -20.51586 | -44.25184 | 36007 ft | 484 kts | 325° |
| 2026-04-20 20:32 | -20.45812 | -44.28875 | 36017 ft | 483 kts | 325° |
| 2026-04-20 20:33 | -20.40059 | -44.32569 | 36011 ft | 482 kts | 325° |
| 2026-04-20 20:33 | -20.34331 | -44.36277 | 36014 ft | 481 kts | 325° |
| 2026-04-20 20:34 | -20.28606 | -44.39982 | 36008 ft | 481 kts | 325° |
| 2026-04-20 20:34 | -20.22916 | -44.43655 | 35999 ft | 480 kts | 325° |
| 2026-04-20 20:35 | -20.17195 | -44.47346 | 36006 ft | 480 kts | 325° |
| 2026-04-20 20:35 | -20.11479 | -44.51025 | 35997 ft | 480 kts | 325° |
| 2026-04-20 20:36 | -20.05751 | -44.54685 | 35992 ft | 481 kts | 325° |
| 2026-04-20 20:36 | -20.00016 | -44.58343 | 35993 ft | 480 kts | 325° |
| 2026-04-20 20:37 | -19.94282 | -44.62000 | 35993 ft | 481 kts | 326° |
| 2026-04-20 20:37 | -19.88549 | -44.65657 | 35985 ft | 480 kts | 326° |
| 2026-04-20 20:38 | -19.82855 | -44.69285 | 35984 ft | 480 kts | 326° |
| 2026-04-20 20:38 | -19.77118 | -44.72937 | 35987 ft | 480 kts | 326° |
| 2026-04-20 20:39 | -19.71385 | -44.76585 | 35990 ft | 481 kts | 326° |
| 2026-04-20 20:39 | -19.65645 | -44.80234 | 35978 ft | 480 kts | 326° |
| 2026-04-20 20:40 | -19.59905 | -44.83880 | 35981 ft | 480 kts | 326° |
| 2026-04-20 20:40 | -19.54205 | -44.87498 | 35982 ft | 480 kts | 326° |
| 2026-04-20 20:41 | -19.48475 | -44.91132 | 35978 ft | 480 kts | 326° |
| 2026-04-20 20:41 | -19.42742 | -44.94769 | 35983 ft | 480 kts | 326° |
| 2026-04-20 20:42 | -19.37003 | -44.98408 | 35974 ft | 480 kts | 326° |
| 2026-04-20 20:42 | -19.31268 | -45.02042 | 35969 ft | 480 kts | 326° |
| 2026-04-20 20:43 | -19.25537 | -45.05670 | 35976 ft | 480 kts | 326° |
| 2026-04-20 20:43 | -19.19796 | -45.09301 | 35971 ft | 480 kts | 326° |
| 2026-04-20 20:44 | -19.14065 | -45.12924 | 35966 ft | 480 kts | 326° |
| 2026-04-20 20:44 | -19.08328 | -45.16546 | 35971 ft | 480 kts | 326° |
| 2026-04-20 20:45 | -19.02633 | -45.20139 | 35962 ft | 479 kts | 326° |
| 2026-04-20 20:45 | -18.96909 | -45.23749 | 35968 ft | 479 kts | 326° |
| 2026-04-20 20:46 | -18.91189 | -45.27352 | 35965 ft | 478 kts | 326° |
| 2026-04-20 20:46 | -18.85468 | -45.30953 | 35967 ft | 478 kts | 326° |
| 2026-04-20 20:47 | -18.79750 | -45.34550 | 35968 ft | 478 kts | 326° |
| 2026-04-20 20:47 | -18.74036 | -45.38141 | 35969 ft | 478 kts | 326° |
| 2026-04-20 20:48 | -18.68362 | -45.41704 | 35973 ft | 477 kts | 326° |
| 2026-04-20 20:48 | -18.62653 | -45.45287 | 35971 ft | 477 kts | 326° |
| 2026-04-20 20:49 | -18.56940 | -45.48869 | 35965 ft | 477 kts | 326° |
| 2026-04-20 20:49 | -18.51231 | -45.52446 | 35973 ft | 477 kts | 326° |
| 2026-04-20 20:50 | -18.45520 | -45.56022 | 35977 ft | 478 kts | 326° |
| 2026-04-20 20:50 | -18.40006 | -45.59900 | 35983 ft | 475 kts | 320° |
| 2026-04-20 20:51 | -18.34727 | -45.64085 | 35976 ft | 475 kts | 319° |
| 2026-04-20 20:51 | -18.29440 | -45.68289 | 35979 ft | 475 kts | 319° |
| 2026-04-20 20:52 | -18.25036 | -45.71745 | 35980 ft | 476 kts | 319° |
| 2026-04-20 20:52 | -18.18852 | -45.76564 | 35984 ft | 476 kts | 319° |
| 2026-04-20 20:53 | -18.13527 | -45.80705 | 35982 ft | 476 kts | 319° |
| 2026-04-20 20:53 | -18.08205 | -45.84845 | 35980 ft | 475 kts | 319° |
| 2026-04-20 20:54 | -18.03754 | -45.88306 | 35978 ft | 475 kts | 319° |
| 2026-04-20 20:54 | -17.98474 | -45.92408 | 35977 ft | 475 kts | 319° |
| 2026-04-20 20:55 | -17.93169 | -45.96527 | 35971 ft | 474 kts | 319° |
| 2026-04-20 20:55 | -17.87867 | -46.00641 | 35967 ft | 474 kts | 319° |
| 2026-04-20 20:56 | -17.82571 | -46.04746 | 35966 ft | 473 kts | 319° |
| 2026-04-20 20:56 | -17.77272 | -46.08854 | 35961 ft | 473 kts | 319° |
| 2026-04-20 20:57 | -17.71988 | -46.12950 | 35958 ft | 472 kts | 319° |
| 2026-04-20 20:57 | -17.66698 | -46.17048 | 35950 ft | 472 kts | 319° |
| 2026-04-20 20:58 | -17.61419 | -46.21134 | 35950 ft | 471 kts | 319° |
| 2026-04-20 20:58 | -17.56166 | -46.25197 | 35942 ft | 471 kts | 319° |
| 2026-04-20 20:59 | -17.50894 | -46.29272 | 35939 ft | 471 kts | 319° |
| 2026-04-20 20:59 | -17.45620 | -46.33345 | 35942 ft | 471 kts | 319° |
| 2026-04-20 21:00 | -17.40342 | -46.37418 | 35934 ft | 471 kts | 319° |
| 2026-04-20 21:00 | -17.35062 | -46.41490 | 35935 ft | 470 kts | 319° |
| 2026-04-20 21:01 | -17.29793 | -46.45551 | 35936 ft | 470 kts | 319° |
| 2026-04-20 21:01 | -17.24556 | -46.49584 | 35939 ft | 470 kts | 319° |
| 2026-04-20 21:02 | -17.19294 | -46.53635 | 35930 ft | 470 kts | 319° |
| 2026-04-20 21:02 | -17.14023 | -46.57688 | 35936 ft | 469 kts | 319° |
| 2026-04-20 21:03 | -17.08948 | -46.61937 | 35947 ft | 466 kts | 315° |
| 2026-04-20 21:03 | -17.04052 | -46.66367 | 35938 ft | 465 kts | 314° |
| 2026-04-20 21:04 | -16.99155 | -46.70796 | 35941 ft | 465 kts | 314° |
| 2026-04-20 21:04 | -16.94245 | -46.75187 | 35946 ft | 465 kts | 314° |
| 2026-04-20 21:05 | -16.89325 | -46.79560 | 35943 ft | 464 kts | 314° |
| 2026-04-20 21:05 | -16.84405 | -46.83927 | 35946 ft | 463 kts | 314° |
| 2026-04-20 21:06 | -16.79531 | -46.88252 | 35954 ft | 463 kts | 314° |
| 2026-04-20 21:06 | -16.74630 | -46.92600 | 35943 ft | 462 kts | 314° |
| 2026-04-20 21:07 | -16.69731 | -46.96944 | 35949 ft | 461 kts | 314° |
| 2026-04-20 21:07 | -16.64839 | -47.01277 | 35943 ft | 461 kts | 314° |
| 2026-04-20 21:08 | -16.59945 | -47.05610 | 35959 ft | 461 kts | 314° |
| 2026-04-20 21:08 | -16.55060 | -47.09932 | 35959 ft | 460 kts | 314° |
| 2026-04-20 21:09 | -16.50198 | -47.14230 | 35965 ft | 460 kts | 314° |
| 2026-04-20 21:09 | -16.45318 | -47.18543 | 35958 ft | 460 kts | 314° |
| 2026-04-20 21:10 | -16.40434 | -47.22856 | 35956 ft | 460 kts | 314° |
| 2026-04-20 21:10 | -16.35739 | -47.27342 | 35960 ft | 456 kts | 309° |
| 2026-04-20 21:11 | -16.31298 | -47.32051 | 35961 ft | 456 kts | 308° |
| 2026-04-20 21:11 | -16.26860 | -47.36780 | 35957 ft | 456 kts | 309° |
| 2026-04-20 21:12 | -16.22400 | -47.41475 | 35966 ft | 456 kts | 309° |
| 2026-04-20 21:12 | -16.17930 | -47.46151 | 35968 ft | 456 kts | 309° |
| 2026-04-20 21:13 | -16.13455 | -47.50825 | 35969 ft | 456 kts | 309° |
| 2026-04-20 21:13 | -16.08977 | -47.55500 | 35965 ft | 456 kts | 309° |
| 2026-04-20 21:14 | -16.04528 | -47.60144 | 35971 ft | 456 kts | 309° |
| 2026-04-20 21:14 | -16.00050 | -47.64816 | 36004 ft | 456 kts | 309° |
| 2026-04-20 21:15 | -15.95571 | -47.69485 | 36028 ft | 456 kts | 309° |
| 2026-04-20 21:15 | -15.91085 | -47.74159 | 36057 ft | 456 kts | 309° |
| 2026-04-20 21:16 | -15.86597 | -47.78832 | 36085 ft | 457 kts | 309° |
| 2026-04-20 21:16 | -15.82111 | -47.83503 | 36095 ft | 457 kts | 309° |
| 2026-04-20 21:17 | -15.77632 | -47.88177 | 36096 ft | 456 kts | 309° |
| 2026-04-20 21:17 | -15.73144 | -47.92860 | 36079 ft | 456 kts | 309° |
| 2026-04-20 21:18 | -15.68691 | -47.97503 | 36055 ft | 456 kts | 309° |
| 2026-04-20 21:18 | -15.64215 | -48.02165 | 36028 ft | 456 kts | 309° |
| 2026-04-20 21:19 | -15.59731 | -48.06833 | 35986 ft | 456 kts | 309° |
| 2026-04-20 21:20 | -15.53018 | -48.13818 | 35957 ft | 456 kts | 309° |
| 2026-04-20 21:20 | -15.48539 | -48.18471 | 35955 ft | 456 kts | 310° |
| 2026-04-20 21:21 | -15.43903 | -48.22990 | 35948 ft | 458 kts | 312° |
| 2026-04-20 21:21 | -15.39181 | -48.27422 | 35939 ft | 457 kts | 312° |
| 2026-04-20 21:22 | -15.34479 | -48.31864 | 35942 ft | 457 kts | 312° |
| 2026-04-20 21:22 | -15.29828 | -48.36292 | 35939 ft | 457 kts | 312° |
| 2026-04-20 21:23 | -15.25150 | -48.40753 | 35933 ft | 457 kts | 312° |
| 2026-04-20 21:23 | -15.20465 | -48.45216 | 35932 ft | 457 kts | 312° |
| 2026-04-20 21:24 | -15.15780 | -48.49676 | 35930 ft | 457 kts | 312° |
| 2026-04-20 21:24 | -15.11090 | -48.54138 | 35929 ft | 457 kts | 312° |
| 2026-04-20 21:25 | -15.06430 | -48.58569 | 35928 ft | 458 kts | 312° |
| 2026-04-20 21:25 | -15.01749 | -48.63015 | 35921 ft | 457 kts | 312° |
| 2026-04-20 21:26 | -14.97034 | -48.67445 | 35928 ft | 457 kts | 313° |
| 2026-04-20 21:26 | -14.92320 | -48.71854 | 35922 ft | 456 kts | 313° |
| 2026-04-20 21:27 | -14.87614 | -48.76256 | 35917 ft | 456 kts | 313° |
| 2026-04-20 21:27 | -14.82913 | -48.80657 | 35912 ft | 455 kts | 313° |
| 2026-04-20 21:28 | -14.78224 | -48.85047 | 35905 ft | 455 kts | 313° |
| 2026-04-20 21:28 | -14.73533 | -48.89434 | 35918 ft | 454 kts | 313° |
| 2026-04-20 21:29 | -14.68846 | -48.93816 | 35918 ft | 454 kts | 313° |
| 2026-04-20 21:29 | -14.64157 | -48.98197 | 35910 ft | 455 kts | 313° |
| 2026-04-20 21:30 | -14.59497 | -49.02547 | 35912 ft | 455 kts | 313° |
| 2026-04-20 21:30 | -14.54799 | -49.06932 | 35909 ft | 455 kts | 313° |
| 2026-04-20 21:31 | -14.50096 | -49.11318 | 35910 ft | 456 kts | 313° |
| 2026-04-20 21:31 | -14.45383 | -49.15710 | 35906 ft | 457 kts | 313° |
| 2026-04-20 21:32 | -14.40665 | -49.20105 | 35905 ft | 457 kts | 313° |
| 2026-04-20 21:32 | -14.35948 | -49.24496 | 35903 ft | 457 kts | 313° |
| 2026-04-20 21:33 | -14.31222 | -49.28893 | 35903 ft | 457 kts | 313° |
| 2026-04-20 21:33 | -14.26492 | -49.33290 | 35901 ft | 458 kts | 313° |
| 2026-04-20 21:34 | -14.21793 | -49.37657 | 35902 ft | 458 kts | 313° |
| 2026-04-20 21:34 | -14.17059 | -49.42053 | 35896 ft | 457 kts | 313° |
| 2026-04-20 21:35 | -14.12334 | -49.46439 | 35893 ft | 457 kts | 313° |
| 2026-04-20 21:35 | -14.07599 | -49.50834 | 35898 ft | 457 kts | 313° |
| 2026-04-20 21:36 | -14.02900 | -49.55190 | 35898 ft | 457 kts | 314° |
| 2026-04-20 21:36 | -13.98119 | -49.59506 | 35893 ft | 458 kts | 315° |
| 2026-04-20 21:37 | -13.93282 | -49.63797 | 35897 ft | 458 kts | 315° |
| 2026-04-20 21:37 | -13.88464 | -49.68077 | 35890 ft | 458 kts | 315° |
| 2026-04-20 21:38 | -13.83638 | -49.72377 | 35892 ft | 458 kts | 315° |
| 2026-04-20 21:38 | -13.78817 | -49.76675 | 35890 ft | 458 kts | 315° |
| 2026-04-20 21:39 | -13.73999 | -49.80970 | 35889 ft | 458 kts | 315° |
| 2026-04-20 21:39 | -13.69182 | -49.85259 | 35892 ft | 458 kts | 315° |
| 2026-04-20 21:40 | -13.64391 | -49.89523 | 35889 ft | 458 kts | 315° |
| 2026-04-20 21:40 | -13.59569 | -49.93812 | 35892 ft | 458 kts | 315° |
| 2026-04-20 21:41 | -13.54742 | -49.98104 | 35887 ft | 459 kts | 315° |
| 2026-04-20 21:41 | -13.50723 | -50.01675 | 35898 ft | 459 kts | 315° |
| 2026-04-20 21:42 | -13.45108 | -50.06662 | 35894 ft | 459 kts | 315° |
| 2026-04-20 21:42 | -13.41057 | -50.10258 | 35890 ft | 459 kts | 315° |
| 2026-04-20 21:43 | -13.36222 | -50.14547 | 35893 ft | 459 kts | 315° |
| 2026-04-20 21:43 | -13.31390 | -50.18833 | 35892 ft | 459 kts | 315° |
| 2026-04-20 21:44 | -13.26548 | -50.23123 | 35893 ft | 459 kts | 315° |
| 2026-04-20 21:44 | -13.21737 | -50.27386 | 35889 ft | 460 kts | 315° |
| 2026-04-20 21:45 | -13.16896 | -50.31671 | 35889 ft | 460 kts | 315° |
| 2026-04-20 21:45 | -13.12046 | -50.35963 | 35889 ft | 460 kts | 315° |
| 2026-04-20 21:46 | -13.07199 | -50.40251 | 35889 ft | 460 kts | 316° |
| 2026-04-20 21:46 | -13.02349 | -50.44540 | 35894 ft | 460 kts | 316° |
| 2026-04-20 21:47 | -12.97508 | -50.48820 | 35888 ft | 460 kts | 316° |
| 2026-04-20 21:47 | -12.92692 | -50.53075 | 35888 ft | 460 kts | 316° |
| 2026-04-20 21:48 | -12.87846 | -50.57354 | 35890 ft | 460 kts | 316° |
| 2026-04-20 21:48 | -12.82994 | -50.61637 | 35887 ft | 460 kts | 316° |
| 2026-04-20 21:49 | -12.78144 | -50.65915 | 35886 ft | 460 kts | 316° |
| 2026-04-20 21:49 | -12.73298 | -50.70187 | 35889 ft | 460 kts | 316° |
| 2026-04-20 21:50 | -12.68446 | -50.74463 | 35890 ft | 460 kts | 316° |
| 2026-04-20 21:50 | -12.63592 | -50.78738 | 35889 ft | 460 kts | 316° |
| 2026-04-20 21:51 | -12.58767 | -50.82985 | 35892 ft | 460 kts | 316° |
| 2026-04-20 21:51 | -12.53877 | -50.87288 | 35891 ft | 460 kts | 316° |
| 2026-04-20 21:52 | -12.49050 | -50.91533 | 35891 ft | 460 kts | 316° |
| 2026-04-20 21:52 | -12.44191 | -50.95804 | 35890 ft | 461 kts | 316° |
| 2026-04-20 21:53 | -12.39324 | -51.00079 | 35886 ft | 461 kts | 316° |
| 2026-04-20 21:53 | -12.34456 | -51.04354 | 35890 ft | 461 kts | 316° |
| 2026-04-20 21:54 | -12.29615 | -51.08603 | 35889 ft | 461 kts | 317° |
| 2026-04-20 21:54 | -12.24749 | -51.12873 | 35892 ft | 461 kts | 317° |
| 2026-04-20 21:55 | -12.19873 | -51.17147 | 35894 ft | 461 kts | 317° |
| 2026-04-20 21:55 | -12.14996 | -51.21422 | 35896 ft | 462 kts | 317° |
| 2026-04-20 21:56 | -12.10120 | -51.25694 | 35895 ft | 462 kts | 317° |
| 2026-04-20 21:56 | -12.05241 | -51.29969 | 35901 ft | 462 kts | 317° |
| 2026-04-20 21:57 | -12.00365 | -51.34239 | 35897 ft | 462 kts | 317° |
| 2026-04-20 21:57 | -11.95479 | -51.38515 | 35900 ft | 462 kts | 317° |
| 2026-04-20 21:58 | -11.90602 | -51.42782 | 35898 ft | 462 kts | 317° |
| 2026-04-20 21:58 | -11.85718 | -51.47053 | 35900 ft | 462 kts | 317° |
| 2026-04-20 21:59 | -11.80841 | -51.51315 | 35894 ft | 462 kts | 317° |
| 2026-04-20 21:59 | -11.75989 | -51.55554 | 35902 ft | 462 kts | 317° |
| 2026-04-20 22:00 | -11.71110 | -51.59814 | 35901 ft | 462 kts | 317° |
| 2026-04-20 22:00 | -11.66226 | -51.64076 | 35900 ft | 461 kts | 317° |
| 2026-04-20 22:01 | -11.61348 | -51.68332 | 35898 ft | 461 kts | 317° |
| 2026-04-20 22:01 | -11.56456 | -51.72597 | 35898 ft | 461 kts | 317° |
| 2026-04-20 22:02 | -11.51610 | -51.76821 | 35899 ft | 461 kts | 317° |
| 2026-04-20 22:02 | -11.46730 | -51.81072 | 35892 ft | 461 kts | 317° |
| 2026-04-20 22:03 | -11.41855 | -51.85317 | 35899 ft | 461 kts | 317° |
| 2026-04-20 22:03 | -11.36967 | -51.89571 | 35899 ft | 461 kts | 318° |
| 2026-04-20 22:04 | -11.32083 | -51.93821 | 35895 ft | 462 kts | 318° |
| 2026-04-20 22:04 | -11.27196 | -51.98066 | 35897 ft | 462 kts | 318° |
| 2026-04-20 22:05 | -11.22264 | -52.02263 | 35901 ft | 462 kts | 319° |
| 2026-04-20 22:05 | -11.17310 | -52.06445 | 35902 ft | 462 kts | 319° |
| 2026-04-20 22:06 | -11.12363 | -52.10627 | 35898 ft | 462 kts | 319° |
| 2026-04-20 22:06 | -11.07420 | -52.14813 | 35899 ft | 462 kts | 319° |
| 2026-04-20 22:07 | -11.02512 | -52.18970 | 35896 ft | 462 kts | 319° |
| 2026-04-20 22:07 | -10.97572 | -52.23154 | 35897 ft | 462 kts | 319° |
| 2026-04-20 22:08 | -10.92634 | -52.27333 | 35897 ft | 462 kts | 319° |
| 2026-04-20 22:08 | -10.87687 | -52.31518 | 35903 ft | 462 kts | 319° |
| 2026-04-20 22:09 | -10.82744 | -52.35697 | 35899 ft | 461 kts | 319° |
| 2026-04-20 22:09 | -10.77809 | -52.39868 | 35900 ft | 461 kts | 319° |
| 2026-04-20 22:10 | -10.72876 | -52.44035 | 35897 ft | 461 kts | 319° |
| 2026-04-20 22:10 | -10.67972 | -52.48176 | 35900 ft | 461 kts | 319° |
| 2026-04-20 22:11 | -10.63012 | -52.52363 | 35899 ft | 460 kts | 319° |
| 2026-04-20 22:11 | -10.58122 | -52.56487 | 35897 ft | 460 kts | 319° |
| 2026-04-20 22:12 | -10.53194 | -52.60643 | 35898 ft | 460 kts | 319° |
| 2026-04-20 22:12 | -10.48271 | -52.64794 | 35898 ft | 459 kts | 319° |
| 2026-04-20 22:13 | -10.43351 | -52.68939 | 35898 ft | 459 kts | 319° |
| 2026-04-20 22:13 | -10.38432 | -52.73082 | 35899 ft | 459 kts | 319° |
| 2026-04-20 22:14 | -10.33513 | -52.77223 | 35899 ft | 459 kts | 319° |
| 2026-04-20 22:14 | -10.28596 | -52.81361 | 35904 ft | 459 kts | 320° |
| 2026-04-20 22:15 | -10.23672 | -52.85503 | 35899 ft | 459 kts | 320° |
| 2026-04-20 22:15 | -10.18781 | -52.89616 | 35899 ft | 459 kts | 320° |
| 2026-04-20 22:16 | -10.13854 | -52.93757 | 35899 ft | 459 kts | 320° |
| 2026-04-20 22:16 | -10.08916 | -52.97906 | 35899 ft | 459 kts | 320° |
| 2026-04-20 22:17 | -10.03994 | -53.02040 | 35899 ft | 459 kts | 320° |
| 2026-04-20 22:17 | -9.99069 | -53.06175 | 35903 ft | 459 kts | 320° |
| 2026-04-20 22:18 | -9.94153 | -53.10301 | 35905 ft | 459 kts | 320° |
| 2026-04-20 22:18 | -9.89286 | -53.14437 | 35906 ft | 459 kts | 318° |
| 2026-04-20 22:19 | -9.84577 | -53.18808 | 35906 ft | 459 kts | 316° |
| 2026-04-20 22:19 | -9.79912 | -53.23226 | 35905 ft | 458 kts | 317° |
| 2026-04-20 22:20 | -9.75228 | -53.27619 | 35904 ft | 458 kts | 317° |
| 2026-04-20 22:20 | -9.70531 | -53.31995 | 35906 ft | 458 kts | 317° |
| 2026-04-20 22:21 | -9.65839 | -53.36360 | 35905 ft | 458 kts | 317° |
| 2026-04-20 22:21 | -9.61142 | -53.40732 | 35902 ft | 458 kts | 317° |
| 2026-04-20 22:22 | -9.56450 | -53.45098 | 35904 ft | 458 kts | 317° |
| 2026-04-20 22:22 | -9.51764 | -53.49452 | 35903 ft | 457 kts | 317° |
| 2026-04-20 22:23 | -9.47066 | -53.53804 | 35906 ft | 457 kts | 317° |
| 2026-04-20 22:23 | -9.42395 | -53.58129 | 35908 ft | 457 kts | 317° |
| 2026-04-20 22:24 | -9.37702 | -53.62477 | 35907 ft | 457 kts | 317° |
| 2026-04-20 22:24 | -9.33009 | -53.66823 | 35905 ft | 457 kts | 317° |
| 2026-04-20 22:25 | -9.28303 | -53.71179 | 35906 ft | 457 kts | 317° |
| 2026-04-20 22:25 | -9.23609 | -53.75523 | 35903 ft | 458 kts | 317° |
| 2026-04-20 22:26 | -9.18903 | -53.79876 | 35906 ft | 458 kts | 317° |
| 2026-04-20 22:26 | -9.14228 | -53.84200 | 35905 ft | 458 kts | 317° |
| 2026-04-20 22:27 | -9.07161 | -53.90731 | 35907 ft | 459 kts | 317° |
| 2026-04-20 22:27 | -9.02446 | -53.95087 | 35906 ft | 459 kts | 317° |
| 2026-04-20 22:28 | -8.97728 | -53.99444 | 35909 ft | 459 kts | 318° |
| 2026-04-20 22:28 | -8.93001 | -54.03808 | 35905 ft | 460 kts | 318° |
| 2026-04-20 22:29 | -8.88279 | -54.08165 | 35908 ft | 460 kts | 318° |
| 2026-04-20 22:29 | -8.83549 | -54.12529 | 35907 ft | 460 kts | 318° |
| 2026-04-20 22:30 | -8.79617 | -54.16155 | 35906 ft | 460 kts | 318° |
| 2026-04-20 22:30 | -8.74886 | -54.20517 | 35911 ft | 460 kts | 318° |
| 2026-04-20 22:31 | -8.70154 | -54.24877 | 35911 ft | 460 kts | 318° |
| 2026-04-20 22:31 | -8.65417 | -54.29241 | 35909 ft | 460 kts | 318° |
| 2026-04-20 22:32 | -8.60712 | -54.33574 | 35912 ft | 460 kts | 318° |
| 2026-04-20 22:32 | -8.55982 | -54.37928 | 35909 ft | 459 kts | 318° |
| 2026-04-20 22:33 | -8.51249 | -54.42284 | 35910 ft | 459 kts | 318° |
| 2026-04-20 22:33 | -8.46533 | -54.46622 | 35904 ft | 459 kts | 318° |
| 2026-04-20 22:34 | -8.41817 | -54.50959 | 35910 ft | 458 kts | 318° |
| 2026-04-20 22:34 | -8.37103 | -54.55292 | 35909 ft | 458 kts | 318° |
| 2026-04-20 22:35 | -8.32379 | -54.59633 | 35908 ft | 458 kts | 318° |
| 2026-04-20 22:35 | -8.27699 | -54.63933 | 35909 ft | 458 kts | 318° |
| 2026-04-20 22:36 | -8.22981 | -54.68265 | 35909 ft | 458 kts | 318° |
| 2026-04-20 22:36 | -8.18260 | -54.72600 | 35910 ft | 458 kts | 318° |
| 2026-04-20 22:37 | -8.13541 | -54.76930 | 35912 ft | 458 kts | 318° |
| 2026-04-20 22:37 | -8.08816 | -54.81265 | 35911 ft | 458 kts | 318° |
| 2026-04-20 22:38 | -8.04129 | -54.85564 | 35913 ft | 459 kts | 319° |
| 2026-04-20 22:38 | -7.99407 | -54.89893 | 35914 ft | 459 kts | 319° |
| 2026-04-20 22:39 | -7.94677 | -54.94228 | 35912 ft | 459 kts | 319° |
| 2026-04-20 22:39 | -7.89941 | -54.98567 | 35912 ft | 460 kts | 319° |
| 2026-04-20 22:40 | -7.85207 | -55.02904 | 35910 ft | 460 kts | 319° |
| 2026-04-20 22:40 | -7.80467 | -55.07244 | 35913 ft | 460 kts | 319° |
| 2026-04-20 22:41 | -7.75717 | -55.11591 | 35911 ft | 461 kts | 319° |
| 2026-04-20 22:41 | -7.71000 | -55.15908 | 35909 ft | 461 kts | 319° |
| 2026-04-20 22:42 | -7.66246 | -55.20257 | 35912 ft | 462 kts | 319° |
| 2026-04-20 22:42 | -7.61487 | -55.24609 | 35913 ft | 462 kts | 319° |
| 2026-04-20 22:43 | -7.56725 | -55.28963 | 35914 ft | 462 kts | 319° |
| 2026-04-20 22:43 | -7.51960 | -55.33318 | 35917 ft | 462 kts | 319° |
| 2026-04-20 22:44 | -7.47193 | -55.37675 | 35914 ft | 463 kts | 319° |
| 2026-04-20 22:44 | -7.42415 | -55.42040 | 35913 ft | 463 kts | 319° |
| 2026-04-20 22:45 | -7.37649 | -55.46402 | 35915 ft | 463 kts | 319° |
| 2026-04-20 22:45 | -7.32895 | -55.50775 | 35917 ft | 463 kts | 319° |
| 2026-04-20 22:46 | -7.28139 | -55.55145 | 35914 ft | 462 kts | 319° |
| 2026-04-20 22:46 | -7.23326 | -55.59375 | 35916 ft | 462 kts | 321° |
| 2026-04-20 22:47 | -7.18418 | -55.63557 | 35917 ft | 461 kts | 321° |
| 2026-04-20 22:47 | -7.13518 | -55.67743 | 35913 ft | 461 kts | 320° |
| 2026-04-20 22:48 | -7.08641 | -55.71933 | 35914 ft | 461 kts | 320° |
| 2026-04-20 22:48 | -7.03770 | -55.76128 | 35917 ft | 461 kts | 320° |
| 2026-04-20 22:49 | -6.98899 | -55.80324 | 35916 ft | 461 kts | 320° |
| 2026-04-20 22:49 | -6.94060 | -55.84490 | 35912 ft | 460 kts | 320° |
| 2026-04-20 22:50 | -6.89191 | -55.88680 | 35914 ft | 460 kts | 320° |
| 2026-04-20 22:50 | -6.84328 | -55.92863 | 35912 ft | 460 kts | 320° |
| 2026-04-20 22:51 | -6.79455 | -55.97054 | 35911 ft | 460 kts | 320° |
| 2026-04-20 22:51 | -6.74586 | -56.01240 | 35912 ft | 460 kts | 320° |
| 2026-04-20 22:52 | -6.69713 | -56.05428 | 35914 ft | 461 kts | 320° |
| 2026-04-20 22:52 | -6.64830 | -56.09624 | 35910 ft | 461 kts | 320° |
| 2026-04-20 22:53 | -6.59944 | -56.13821 | 35912 ft | 462 kts | 320° |
| 2026-04-20 22:53 | -6.55056 | -56.18020 | 35910 ft | 462 kts | 320° |
| 2026-04-20 22:54 | -6.50194 | -56.22195 | 35909 ft | 463 kts | 320° |
| 2026-04-20 22:54 | -6.45294 | -56.26401 | 35910 ft | 463 kts | 320° |
| 2026-04-20 22:55 | -6.40386 | -56.30612 | 35908 ft | 463 kts | 320° |
| 2026-04-20 22:55 | -6.35476 | -56.34824 | 35908 ft | 464 kts | 321° |
| 2026-04-20 22:56 | -6.30563 | -56.39038 | 35917 ft | 465 kts | 320° |
| 2026-04-20 22:56 | -6.25632 | -56.43267 | 35907 ft | 466 kts | 320° |
| 2026-04-20 22:57 | -6.20727 | -56.47472 | 35906 ft | 466 kts | 321° |
| 2026-04-20 22:57 | -6.15802 | -56.51693 | 35900 ft | 466 kts | 321° |
| 2026-04-20 22:58 | -6.10870 | -56.55920 | 35903 ft | 465 kts | 321° |
| 2026-04-20 22:58 | -6.05952 | -56.60132 | 35898 ft | 464 kts | 321° |
| 2026-04-20 22:59 | -6.01042 | -56.64338 | 35897 ft | 463 kts | 321° |
| 2026-04-20 22:59 | -5.96130 | -56.68544 | 35894 ft | 463 kts | 321° |
| 2026-04-20 23:00 | -5.91263 | -56.72710 | 35895 ft | 462 kts | 321° |
| 2026-04-20 23:00 | -5.86370 | -56.76898 | 35901 ft | 462 kts | 321° |
| 2026-04-20 23:01 | -5.81481 | -56.81083 | 35897 ft | 462 kts | 321° |
| 2026-04-20 23:01 | -5.76621 | -56.85296 | 35893 ft | 462 kts | 316° |
| 2026-04-20 23:02 | -5.72728 | -56.90418 | 35890 ft | 464 kts | 299° |
| 2026-04-20 23:02 | -5.69705 | -56.96169 | 35898 ft | 467 kts | 298° |
| 2026-04-20 23:03 | -5.66705 | -57.01987 | 35905 ft | 471 kts | 298° |
| 2026-04-20 23:03 | -5.63648 | -57.07827 | 35901 ft | 473 kts | 298° |
| 2026-04-20 23:04 | -5.60555 | -57.13673 | 35892 ft | 474 kts | 298° |
| 2026-04-20 23:04 | -5.57452 | -57.19518 | 35892 ft | 474 kts | 298° |
| 2026-04-20 23:05 | -5.54353 | -57.25352 | 35896 ft | 472 kts | 298° |
| 2026-04-20 23:05 | -5.51292 | -57.31118 | 35895 ft | 471 kts | 298° |
| 2026-04-20 23:06 | -5.48221 | -57.36902 | 35896 ft | 468 kts | 298° |
| 2026-04-20 23:06 | -5.45162 | -57.42662 | 35897 ft | 467 kts | 298° |
| 2026-04-20 23:07 | -5.42113 | -57.48400 | 35897 ft | 465 kts | 298° |
| 2026-04-20 23:07 | -5.39070 | -57.54128 | 35899 ft | 464 kts | 298° |
| 2026-04-20 23:08 | -5.36031 | -57.59843 | 35899 ft | 464 kts | 298° |
| 2026-04-20 23:08 | -5.32993 | -57.65557 | 35901 ft | 464 kts | 298° |
| 2026-04-20 23:09 | -5.29950 | -57.71280 | 35901 ft | 465 kts | 298° |
| 2026-04-20 23:09 | -5.26904 | -57.77005 | 35902 ft | 466 kts | 298° |
| 2026-04-20 23:10 | -5.23870 | -57.82706 | 35900 ft | 467 kts | 298° |
| 2026-04-20 23:10 | -5.20808 | -57.88460 | 35902 ft | 468 kts | 298° |
| 2026-04-20 23:11 | -5.17738 | -57.94224 | 35899 ft | 469 kts | 298° |
| 2026-04-20 23:11 | -5.14664 | -57.99998 | 35899 ft | 469 kts | 298° |
| 2026-04-20 23:12 | -5.11585 | -58.05776 | 35899 ft | 470 kts | 298° |
| 2026-04-20 23:12 | -5.08503 | -58.11562 | 35897 ft | 470 kts | 298° |
| 2026-04-20 23:13 | -5.05419 | -58.17347 | 35900 ft | 470 kts | 298° |
| 2026-04-20 23:13 | -5.02344 | -58.23116 | 35895 ft | 469 kts | 298° |
| 2026-04-20 23:14 | -4.99282 | -58.28857 | 35898 ft | 469 kts | 298° |
| 2026-04-20 23:14 | -4.96207 | -58.34622 | 35895 ft | 468 kts | 298° |
| 2026-04-20 23:15 | -4.93138 | -58.40374 | 35897 ft | 468 kts | 298° |
| 2026-04-20 23:15 | -4.90067 | -58.46120 | 35895 ft | 467 kts | 298° |
| 2026-04-20 23:16 | -4.86993 | -58.51871 | 35893 ft | 467 kts | 298° |
| 2026-04-20 23:16 | -4.83924 | -58.57615 | 35894 ft | 467 kts | 298° |
| 2026-04-20 23:17 | -4.80862 | -58.63346 | 35895 ft | 466 kts | 298° |
| 2026-04-20 23:17 | -4.77815 | -58.69047 | 35897 ft | 466 kts | 298° |
| 2026-04-20 23:18 | -4.74745 | -58.74788 | 35894 ft | 466 kts | 298° |
| 2026-04-20 23:18 | -4.71680 | -58.80521 | 35896 ft | 467 kts | 298° |
| 2026-04-20 23:19 | -4.68613 | -58.86254 | 35800 ft | 469 kts | 298° |
| 2026-04-20 23:19 | -4.67065 | -58.89148 | 35423 ft | 468 kts | 298° |
| 2026-04-20 23:19 | -4.65536 | -58.92006 | 35025 ft | 464 kts | 298° |
| 2026-04-20 23:20 | -4.64017 | -58.94845 | 34613 ft | 460 kts | 298° |
| 2026-04-20 23:20 | -4.62509 | -58.97663 | 34217 ft | 457 kts | 298° |
| 2026-04-20 23:20 | -4.61518 | -58.99514 | 33941 ft | 455 kts | 298° |
| 2026-04-20 23:20 | -4.60026 | -59.02302 | 33465 ft | 453 kts | 298° |
| 2026-04-20 23:21 | -4.58542 | -59.05075 | 33018 ft | 449 kts | 299° |
| 2026-04-20 23:21 | -4.57071 | -59.07822 | 32599 ft | 446 kts | 299° |
| 2026-04-20 23:21 | -4.55607 | -59.10557 | 32187 ft | 443 kts | 299° |
| 2026-04-20 23:21 | -4.54154 | -59.13270 | 31782 ft | 440 kts | 299° |
| 2026-04-20 23:22 | -4.52713 | -59.15962 | 31383 ft | 438 kts | 299° |
| 2026-04-20 23:22 | -4.51276 | -59.18644 | 30974 ft | 435 kts | 299° |
| 2026-04-20 23:22 | -4.49848 | -59.21309 | 30579 ft | 433 kts | 299° |
| 2026-04-20 23:22 | -4.48424 | -59.23968 | 30175 ft | 431 kts | 299° |
| 2026-04-20 23:23 | -4.47007 | -59.26612 | 29755 ft | 429 kts | 300° |
| 2026-04-20 23:23 | -4.45601 | -59.29237 | 29288 ft | 426 kts | 300° |
| 2026-04-20 23:23 | -4.44206 | -59.31840 | 28871 ft | 423 kts | 300° |
| 2026-04-20 23:23 | -4.42817 | -59.34432 | 28451 ft | 420 kts | 299° |
| 2026-04-20 23:24 | -4.41441 | -59.36999 | 28039 ft | 416 kts | 299° |
| 2026-04-20 23:24 | -4.40075 | -59.39546 | 27638 ft | 413 kts | 299° |
| 2026-04-20 23:24 | -4.38723 | -59.42069 | 27236 ft | 410 kts | 299° |
| 2026-04-20 23:24 | -4.37375 | -59.44583 | 26841 ft | 408 kts | 299° |
| 2026-04-20 23:25 | -4.36035 | -59.47081 | 26446 ft | 405 kts | 299° |
| 2026-04-20 23:25 | -4.34703 | -59.49566 | 26053 ft | 403 kts | 299° |
| 2026-04-20 23:25 | -4.33396 | -59.52001 | 25670 ft | 401 kts | 299° |
| 2026-04-20 23:25 | -4.32082 | -59.54452 | 25286 ft | 399 kts | 299° |
| 2026-04-20 23:26 | -4.30767 | -59.56903 | 24878 ft | 397 kts | 299° |
| 2026-04-20 23:26 | -4.29463 | -59.59334 | 24494 ft | 396 kts | 299° |
| 2026-04-20 23:26 | -4.28159 | -59.61763 | 24096 ft | 395 kts | 298° |
| 2026-04-20 23:26 | -4.26860 | -59.64184 | 23706 ft | 394 kts | 298° |
| 2026-04-20 23:27 | -4.25568 | -59.66592 | 23285 ft | 392 kts | 298° |
| 2026-04-20 23:27 | -4.24279 | -59.68994 | 22854 ft | 390 kts | 298° |
| 2026-04-20 23:27 | -4.22996 | -59.71384 | 22454 ft | 387 kts | 298° |
| 2026-04-20 23:27 | -4.21726 | -59.73751 | 22059 ft | 384 kts | 298° |
| 2026-04-20 23:28 | -4.20464 | -59.76102 | 21681 ft | 381 kts | 298° |
| 2026-04-20 23:28 | -4.19233 | -59.78396 | 21308 ft | 379 kts | 298° |
| 2026-04-20 23:28 | -4.17985 | -59.80719 | 20925 ft | 376 kts | 298° |
| 2026-04-20 23:28 | -4.16752 | -59.83016 | 20546 ft | 374 kts | 298° |
| 2026-04-20 23:29 | -4.15523 | -59.85307 | 20180 ft | 371 kts | 298° |
| 2026-04-20 23:29 | -4.14305 | -59.87576 | 19808 ft | 369 kts | 298° |
| 2026-04-20 23:29 | -4.13091 | -59.89836 | 19447 ft | 367 kts | 298° |
| 2026-04-20 23:29 | -4.11882 | -59.92087 | 19078 ft | 365 kts | 298° |
| 2026-04-20 23:30 | -4.10543 | -59.94236 | 18675 ft | 364 kts | 312° |
| 2026-04-20 23:30 | -4.08602 | -59.95828 | 18326 ft | 360 kts | 332° |
| 2026-04-20 23:30 | -4.06283 | -59.96746 | 17952 ft | 356 kts | 343° |
| 2026-04-20 23:30 | -4.03948 | -59.97453 | 17556 ft | 355 kts | 344° |
| 2026-04-20 23:31 | -4.01583 | -59.98129 | 17174 ft | 352 kts | 345° |
| 2026-04-20 23:31 | -3.99236 | -59.98798 | 16807 ft | 350 kts | 344° |
| 2026-04-20 23:31 | -3.96923 | -59.99465 | 16430 ft | 340 kts | 344° |
| 2026-04-20 23:31 | -3.94682 | -60.00120 | 16085 ft | 332 kts | 343° |
| 2026-04-20 23:32 | -3.92474 | -60.00772 | 15756 ft | 330 kts | 343° |
| 2026-04-20 23:32 | -3.90276 | -60.01425 | 15422 ft | 329 kts | 343° |
| 2026-04-20 23:32 | -3.88091 | -60.02076 | 15090 ft | 327 kts | 343° |
| 2026-04-20 23:32 | -3.85915 | -60.02726 | 14757 ft | 326 kts | 343° |
| 2026-04-20 23:33 | -3.83738 | -60.03377 | 14422 ft | 325 kts | 343° |
| 2026-04-20 23:33 | -3.81577 | -60.04024 | 14080 ft | 324 kts | 342° |
| 2026-04-20 23:33 | -3.79420 | -60.04670 | 13742 ft | 323 kts | 342° |
| 2026-04-20 23:33 | -3.77264 | -60.05315 | 13361 ft | 323 kts | 342° |
| 2026-04-20 23:34 | -3.75118 | -60.05958 | 13008 ft | 321 kts | 342° |
| 2026-04-20 23:34 | -3.72981 | -60.06598 | 12666 ft | 319 kts | 342° |
| 2026-04-20 23:34 | -3.70859 | -60.07233 | 12326 ft | 317 kts | 342° |
| 2026-04-20 23:34 | -3.68748 | -60.07865 | 11996 ft | 316 kts | 342° |
| 2026-04-20 23:35 | -3.66651 | -60.08493 | 11661 ft | 314 kts | 342° |
| 2026-04-20 23:35 | -3.62478 | -60.09742 | 11004 ft | 311 kts | 343° |
| 2026-04-20 23:35 | -3.60407 | -60.10362 | 10675 ft | 310 kts | 343° |
| 2026-04-20 23:36 | -3.58351 | -60.10977 | 10350 ft | 309 kts | 343° |
| 2026-04-20 23:36 | -3.56298 | -60.11591 | 10159 ft | 303 kts | 343° |
| 2026-04-20 23:36 | -3.54298 | -60.12189 | 9998 ft | 296 kts | 343° |
| 2026-04-20 23:36 | -3.52372 | -60.12765 | 9812 ft | 291 kts | 343° |
| 2026-04-20 23:37 | -3.50438 | -60.13344 | 9503 ft | 290 kts | 343° |
| 2026-04-20 23:37 | -3.48509 | -60.13920 | 9206 ft | 288 kts | 343° |
| 2026-04-20 23:37 | -3.46591 | -60.14494 | 8898 ft | 287 kts | 343° |
| 2026-04-20 23:37 | -3.44684 | -60.15064 | 8609 ft | 286 kts | 343° |
| 2026-04-20 23:38 | -3.42783 | -60.15633 | 8319 ft | 285 kts | 343° |
| 2026-04-20 23:38 | -3.40888 | -60.16200 | 8028 ft | 283 kts | 344° |
| 2026-04-20 23:38 | -3.39000 | -60.16764 | 7729 ft | 282 kts | 344° |
| 2026-04-20 23:38 | -3.37116 | -60.17328 | 7439 ft | 281 kts | 344° |
| 2026-04-20 23:39 | -3.35246 | -60.17887 | 7144 ft | 281 kts | 344° |
| 2026-04-20 23:39 | -3.33372 | -60.18448 | 6855 ft | 280 kts | 344° |
| 2026-04-20 23:39 | -3.31509 | -60.19005 | 6563 ft | 280 kts | 344° |
| 2026-04-20 23:39 | -3.29643 | -60.19563 | 6260 ft | 279 kts | 344° |
| 2026-04-20 23:40 | -3.27786 | -60.20118 | 5954 ft | 278 kts | 344° |
| 2026-04-20 23:40 | -3.25955 | -60.20665 | 5662 ft | 277 kts | 344° |
| 2026-04-20 23:40 | -3.24106 | -60.21194 | 5365 ft | 276 kts | 348° |
| 2026-04-20 23:40 | -3.22215 | -60.21540 | 5073 ft | 275 kts | 352° |
| 2026-04-20 23:41 | -3.20324 | -60.21828 | 4800 ft | 274 kts | 352° |
| 2026-04-20 23:41 | -3.18450 | -60.22120 | 4498 ft | 273 kts | 352° |
| 2026-04-20 23:41 | -3.16569 | -60.22424 | 4205 ft | 271 kts | 352° |
| 2026-04-20 23:41 | -3.14719 | -60.22729 | 4031 ft | 265 kts | 352° |
| 2026-04-20 23:42 | -3.12943 | -60.22937 | 3899 ft | 249 kts | 0° |
| 2026-04-20 23:42 | -3.11261 | -60.22930 | 3806 ft | 235 kts | 2° |
| 2026-04-20 23:42 | -3.09679 | -60.22900 | 3708 ft | 221 kts | 2° |
| 2026-04-20 23:42 | -3.08203 | -60.22882 | 3651 ft | 205 kts | 2° |
| 2026-04-20 23:43 | -3.06815 | -60.22872 | 3556 ft | 193 kts | 2° |
| 2026-04-20 23:43 | -3.05530 | -60.22741 | 3351 ft | 185 kts | 23° |
| 2026-04-20 23:43 | -3.04518 | -60.22031 | 3194 ft | 178 kts | 51° |
| 2026-04-20 23:43 | -3.03952 | -60.20946 | 3004 ft | 177 kts | 76° |
| 2026-04-20 23:44 | -3.03873 | -60.19740 | 2823 ft | 168 kts | 89° |
| 2026-04-20 23:44 | -3.03847 | -60.18615 | 2663 ft | 155 kts | 88° |
| 2026-04-20 23:44 | -3.03836 | -60.17543 | 2455 ft | 153 kts | 88° |
| 2026-04-20 23:44 | -3.03835 | -60.16485 | 2262 ft | 151 kts | 89° |
| 2026-04-20 23:45 | -3.03837 | -60.15431 | 2070 ft | 152 kts | 89° |
| 2026-04-20 23:45 | -3.03839 | -60.14375 | 1872 ft | 151 kts | 89° |
| 2026-04-20 23:45 | -3.03841 | -60.13324 | 1686 ft | 152 kts | 89° |
| 2026-04-20 23:45 | -3.03843 | -60.12263 | 1481 ft | 153 kts | 89° |
| 2026-04-20 23:46 | -3.03846 | -60.11201 | 1281 ft | 152 kts | 89° |
| 2026-04-20 23:46 | -3.03848 | -60.10140 | 1080 ft | 152 kts | 89° |
| 2026-04-20 23:46 | -3.03850 | -60.09093 | 883 ft | 153 kts | 89° |
| 2026-04-20 23:46 | -3.03852 | -60.08036 | 678 ft | 152 kts | 89° |
| 2026-04-20 23:47 | -3.03855 | -60.06985 | 469 ft | 151 kts | 89° |
| 2026-04-20 23:47 | -3.03856 | -60.05941 | 291 ft | 149 kts | 89° |
| 2026-04-20 23:47 | -3.03858 | -60.05024 | 269 ft | 103 kts | 91° |
| 2026-04-20 23:47 | -3.03861 | -60.04508 | 270 ft | 58 kts | 90° |
| 2026-04-20 23:48 | -3.03863 | -60.04128 | 270 ft | 51 kts | 90° |
| 2026-04-20 23:48 | -3.03862 | -60.03863 | 269 ft | 23 kts | 89° |
| 2026-04-20 23:48 | -3.03780 | -60.03767 | 269 ft | 20 kts | 360° |
| 2026-04-20 23:48 | -3.03681 | -60.03851 | 269 ft | 20 kts | 291° |
| 2026-04-20 23:49 | -3.03647 | -60.03979 | 269 ft | 19 kts | 285° |
| 2026-04-20 23:49 | -3.03612 | -60.04103 | 269 ft | 18 kts | 285° |
| 2026-04-20 23:49 | -3.03576 | -60.04223 | 269 ft | 18 kts | 296° |
| 2026-04-20 23:49 | -3.03503 | -60.04318 | 269 ft | 17 kts | 318° |
| 2026-04-20 23:50 | -3.03401 | -60.04372 | 269 ft | 16 kts | 344° |
| 2026-04-20 23:50 | -3.03331 | -60.04425 | 269 ft | 12 kts | 268° |
| 2026-04-20 23:50 | -3.03347 | -60.04508 | 269 ft | 12 kts | 259° |
| 2026-04-20 23:50 | -3.03332 | -60.04577 | 269 ft | 11 kts | 339° |
| 2026-04-20 23:51 | -3.03278 | -60.04581 | 269 ft | 2 kts | 356° |
| 2026-04-20 23:51 | -3.03272 | -60.04581 | 269 ft | 0 kts | 356° |